Time;durP1;ratioP1;P1;durP2;ratioP2;P2;SDS_P1;SDS_P2;PMS_P1;PMS_P2;Temp;Humidity;BMP_temperature;BMP_pressure;BME280_temperature;BME280_humidity;BME280_pressure;Samples;Min_cycle;Max_cycle;Signal;HPM_P1;HPM_P2
2022/04/19 00:01:01;;;;;;;10.40;10.10;;;8.70;99.90;;;;;;5063989;28;20261;-82
2022/04/19 00:03:30;;;;;;;10.40;10.10;;;8.70;99.90;;;;;;5065260;28;20245;-82
2022/04/19 00:06:00;;;;;;;10.57;10.27;;;8.60;99.90;;;;;;5065099;28;20239;-82
2022/04/19 00:08:29;;;;;;;10.33;10.03;;;8.60;99.90;;;;;;5064309;28;20265;-82
2022/04/19 00:10:59;;;;;;;10.30;10.00;;;8.50;99.90;;;;;;5064261;28;20239;-82
2022/04/19 00:13:31;;;;;;;10.40;10.10;;;8.50;99.90;;;;;;5077720;28;20221;-82
2022/04/19 00:16:00;;;;;;;10.40;10.10;;;8.40;99.90;;;;;;5076068;28;20236;-82
2022/04/19 00:18:28;;;;;;;10.30;10.00;;;8.30;99.90;;;;;;5077098;28;20262;-82
2022/04/19 00:20:58;;;;;;;10.20;9.90;;;8.20;99.90;;;;;;5078783;28;20334;-82
2022/04/19 00:23:26;;;;;;;10.23;9.93;;;8.10;99.90;;;;;;5069861;28;20286;-82
2022/04/19 00:25:55;;;;;;;10.40;10.10;;;8.00;99.90;;;;;;5066400;28;20283;-82
2022/04/19 00:28:26;;;;;;;10.50;10.20;;;7.90;99.90;;;;;;5066575;28;20289;-82
2022/04/19 00:30:57;;;;;;;10.33;10.03;;;7.80;99.90;;;;;;5065526;28;20333;-82
2022/04/19 00:33:25;;;;;;;10.40;10.10;;;7.70;99.90;;;;;;5065169;28;20223;-82
2022/04/19 00:35:53;;;;;;;10.20;9.90;;;7.60;99.90;;;;;;5065391;28;20235;-82
2022/04/19 00:38:22;;;;;;;10.23;9.93;;;7.50;99.90;;;;;;5064552;28;20258;-82
2022/04/19 00:40:52;;;;;;;10.17;9.87;;;7.40;99.90;;;;;;5063691;28;20300;-82
2022/04/19 00:43:21;;;;;;;10.33;10.03;;;7.40;99.90;;;;;;5064483;28;20253;-82
2022/04/19 00:45:51;;;;;;;10.30;10.00;;;7.30;99.90;;;;;;5064578;28;20230;-82
2022/04/19 00:48:30;;;;;;;10.20;9.90;;;7.20;99.90;;;;;;5064293;28;20365;-82
2022/04/19 00:51:00;;;;;;;10.03;9.73;;;7.10;99.90;;;;;;5063175;28;20279;-82
2022/04/19 00:53:29;;;;;;;10.10;9.80;;;7.10;99.90;;;;;;5063814;28;20317;-82
2022/04/19 00:55:57;;;;;;;10.40;10.10;;;7.00;99.90;;;;;;5063909;28;20222;-82
2022/04/19 00:58:27;;;;;;;10.40;10.10;;;6.90;99.90;;;;;;5063431;28;20237;-82
2022/04/19 01:00:56;;;;;;;10.50;10.20;;;6.80;99.90;;;;;;5063417;28;20269;-82
2022/04/19 01:03:37;;;;;;;10.40;10.10;;;6.80;99.90;;;;;;5063586;28;20247;-82
2022/04/19 01:06:06;;;;;;;10.70;10.40;;;6.70;99.90;;;;;;5063819;28;20234;-82
2022/04/19 01:08:34;;;;;;;10.40;10.10;;;6.70;99.90;;;;;;5064020;28;20235;-82
2022/04/19 01:13:50;;;;;;;10.33;10.03;;;6.60;99.90;;;;;;5063177;28;20219;-82
2022/04/19 01:16:19;;;;;;;10.37;10.07;;;6.60;99.90;;;;;;5063577;28;20269;-82
2022/04/19 01:18:54;;;;;;;10.50;10.20;;;6.60;99.90;;;;;;5063458;28;20227;-82
2022/04/19 01:21:21;;;;;;;10.40;10.10;;;6.50;99.90;;;;;;5063515;28;20261;-82
2022/04/19 01:26:37;;;;;;;10.40;10.10;;;6.40;99.90;;;;;;5062884;28;20257;-82
2022/04/19 01:29:06;;;;;;;10.30;10.00;;;6.30;99.90;;;;;;5063178;28;20230;-82
2022/04/19 01:31:35;;;;;;;10.30;10.00;;;6.30;99.90;;;;;;5063253;28;20234;-82
2022/04/19 01:34:05;;;;;;;10.50;10.20;;;6.20;99.90;;;;;;5063535;28;20233;-82
2022/04/19 01:36:36;;;;;;;10.60;10.30;;;6.20;99.90;;;;;;5063107;28;20227;-82
2022/04/19 01:39:13;;;;;;;10.30;10.00;;;6.10;99.90;;;;;;5063558;28;20241;-82
2022/04/19 01:41:42;;;;;;;10.23;9.93;;;6.00;99.90;;;;;;5062894;28;20242;-82
2022/04/19 01:44:15;;;;;;;10.40;10.10;;;5.90;99.90;;;;;;5063519;28;20222;-82
2022/04/19 01:46:42;;;;;;;10.50;10.20;;;5.80;99.90;;;;;;5062989;28;20301;-82
2022/04/19 01:49:10;;;;;;;10.60;10.30;;;5.70;99.90;;;;;;5063526;28;20269;-84
2022/04/19 01:51:40;;;;;;;10.23;9.93;;;5.60;99.90;;;;;;5063208;28;20243;-83
2022/04/19 01:54:18;;;;;;;10.37;10.07;;;5.60;99.90;;;;;;5063860;28;20229;-83
2022/04/19 01:56:48;;;;;;;10.60;10.30;;;5.50;99.90;;;;;;5069087;28;20231;-83
2022/04/19 01:59:17;;;;;;;10.50;10.20;;;5.50;99.90;;;;;;5068778;28;20329;-83
2022/04/19 02:01:48;;;;;;;10.50;10.20;;;5.40;99.90;;;;;;5064867;28;20234;-81
2022/04/19 02:04:16;;;;;;;10.30;10.00;;;5.40;99.90;;;;;;5064941;28;20219;-82
2022/04/19 02:06:45;;;;;;;10.40;10.10;;;5.50;99.90;;;;;;5064290;28;20231;-82
2022/04/19 02:09:23;;;;;;;10.50;10.20;;;5.50;99.90;;;;;;5064599;28;20316;-82
2022/04/19 02:11:53;;;;;;;10.30;10.00;;;5.50;99.90;;;;;;5063321;28;20249;-82
2022/04/19 02:14:23;;;;;;;10.40;10.10;;;5.60;99.90;;;;;;5062552;28;20223;-82
2022/04/19 02:16:53;;;;;;;10.10;9.80;;;5.60;99.90;;;;;;5062929;28;20290;-82
2022/04/19 02:19:21;;;;;;;10.10;9.80;;;5.60;99.90;;;;;;5062921;28;20239;-82
2022/04/19 02:21:50;;;;;;;9.93;9.63;;;5.60;99.90;;;;;;5063123;28;20255;-82
2022/04/19 02:24:29;;;;;;;10.10;9.80;;;5.60;99.90;;;;;;5066814;28;20297;-82
2022/04/19 02:26:58;;;;;;;10.10;9.80;;;5.50;99.90;;;;;;5068734;28;20230;-81
2022/04/19 02:29:27;;;;;;;10.13;9.83;;;5.50;99.90;;;;;;5069390;28;20230;-82
2022/04/19 02:31:57;;;;;;;10.10;9.80;;;5.50;99.90;;;;;;5067485;28;20247;-81
2022/04/19 02:34:27;;;;;;;10.30;10.00;;;5.50;99.90;;;;;;5067161;28;20234;-82
2022/04/19 02:36:57;;;;;;;10.20;9.90;;;5.50;99.90;;;;;;5078672;28;20277;-81
2022/04/19 02:39:28;;;;;;;10.17;9.87;;;5.40;99.90;;;;;;5073431;28;20230;-82
2022/04/19 02:41:56;;;;;;;10.20;9.90;;;5.40;99.90;;;;;;5067223;28;20241;-82
2022/04/19 02:44:25;;;;;;;10.50;10.20;;;5.30;99.90;;;;;;5066711;28;20227;-81
2022/04/19 02:46:55;;;;;;;10.30;10.00;;;5.20;99.90;;;;;;5065912;28;20281;-81
2022/04/19 02:49:23;;;;;;;10.30;10.00;;;5.20;99.90;;;;;;5068152;28;20234;-81
2022/04/19 02:51:55;;;;;;;10.30;10.00;;;5.10;99.90;;;;;;5070863;28;20231;-81
2022/04/19 02:54:22;;;;;;;10.20;9.90;;;5.10;99.90;;;;;;5068235;28;20230;-82
2022/04/19 02:56:54;;;;;;;10.20;9.90;;;5.10;99.90;;;;;;5069595;28;20235;-80
2022/04/19 02:59:22;;;;;;;10.20;9.90;;;5.10;99.90;;;;;;5073750;28;20219;-81
2022/04/19 03:01:50;;;;;;;10.00;9.70;;;5.10;99.90;;;;;;5075714;28;20223;-81
2022/04/19 03:04:20;;;;;;;10.00;9.70;;;5.10;99.90;;;;;;5070938;28;20298;-82
2022/04/19 03:06:50;;;;;;;9.80;9.50;;;5.10;99.90;;;;;;5070568;28;20237;-81
2022/04/19 03:09:19;;;;;;;10.10;9.80;;;5.20;99.90;;;;;;5074614;28;20258;-81
2022/04/19 03:11:49;;;;;;;9.97;9.67;;;5.20;99.90;;;;;;5078865;28;20248;-82
2022/04/19 03:14:21;;;;;;;10.10;9.80;;;5.20;99.90;;;;;;5080738;28;20246;-81
2022/04/19 03:16:48;;;;;;;10.10;9.80;;;5.20;99.90;;;;;;5071808;28;20294;-82
2022/04/19 03:19:19;;;;;;;9.80;9.50;;;5.20;99.90;;;;;;5065608;28;20245;-82
2022/04/19 03:21:48;;;;;;;10.10;9.80;;;5.10;99.90;;;;;;5064980;28;20223;-82
2022/04/19 03:29:53;;;;;;;9.87;9.57;;;4.90;99.90;;;;;;5066512;28;20282;-81
2022/04/19 03:32:21;;;;;;;10.03;9.73;;;4.90;99.90;;;;;;5065805;28;20227;-82
2022/04/19 03:34:51;;;;;;;10.10;9.80;;;4.90;99.90;;;;;;5066092;28;20231;-82
2022/04/19 03:37:20;;;;;;;10.10;9.80;;;4.90;99.90;;;;;;5065704;28;20237;-82
2022/04/19 03:39:49;;;;;;;10.20;9.90;;;4.90;99.90;;;;;;5066058;28;20245;-82
2022/04/19 03:42:18;;;;;;;10.00;9.70;;;4.80;99.90;;;;;;5065144;28;20238;-82
2022/04/19 03:44:58;;;;;;;9.73;9.43;;;4.80;99.90;;;;;;5066052;28;21044;-82
2022/04/19 03:47:26;;;;;;;9.90;9.60;;;4.70;99.90;;;;;;5065891;28;20235;-82
2022/04/19 03:49:55;;;;;;;9.83;9.53;;;4.70;99.90;;;;;;5065900;28;20243;-81
2022/04/19 03:52:25;;;;;;;10.20;9.90;;;4.60;99.90;;;;;;5063812;28;20235;-82
2022/04/19 03:54:54;;;;;;;9.83;9.53;;;4.60;99.90;;;;;;5064422;28;20277;-81
2022/04/19 03:57:25;;;;;;;10.30;10.00;;;4.60;99.90;;;;;;5064606;28;20265;-82
2022/04/19 03:59:56;;;;;;;10.07;9.77;;;4.60;99.90;;;;;;5063633;28;20249;-82
2022/04/19 04:02:24;;;;;;;10.23;9.93;;;4.60;99.90;;;;;;5063970;28;20242;-82
2022/04/19 04:04:53;;;;;;;10.33;10.03;;;4.50;99.90;;;;;;5063869;28;20218;-81
2022/04/19 04:07:22;;;;;;;10.43;10.13;;;4.50;99.90;;;;;;5063709;28;20239;-81
2022/04/19 04:09:52;;;;;;;10.53;10.23;;;4.50;99.90;;;;;;5063689;28;20239;-82
2022/04/19 04:12:21;;;;;;;10.50;10.20;;;4.50;99.90;;;;;;5063430;28;20341;-82
2022/04/19 04:14:50;;;;;;;10.80;10.50;;;4.40;99.90;;;;;;5063631;28;20321;-82
2022/04/19 04:17:30;;;;;;;10.40;10.10;;;4.40;99.90;;;;;;5063793;28;20771;-83
2022/04/19 04:20:00;;;;;;;10.50;10.20;;;4.40;99.90;;;;;;5063341;28;20265;-82
2022/04/19 04:22:28;;;;;;;10.40;10.10;;;4.30;99.90;;;;;;5062985;28;20309;-83
2022/04/19 04:24:57;;;;;;;10.60;10.30;;;4.30;99.90;;;;;;5063613;28;20219;-82
2022/04/19 04:27:26;;;;;;;10.67;10.37;;;4.20;99.90;;;;;;5063917;28;20227;-82
2022/04/19 04:29:55;;;;;;;10.50;10.20;;;4.10;99.90;;;;;;5064140;28;20303;-82
2022/04/19 04:32:35;;;;;;;10.40;10.10;;;4.10;99.90;;;;;;5063272;28;20281;-83
2022/04/19 04:35:03;;;;;;;10.10;9.80;;;4.20;99.90;;;;;;5064179;28;20222;-83
2022/04/19 04:37:32;;;;;;;10.30;10.00;;;4.20;99.90;;;;;;5063561;28;20273;-83
2022/04/19 04:40:03;;;;;;;10.40;10.10;;;4.20;99.90;;;;;;5063933;28;20226;-82
2022/04/19 04:42:32;;;;;;;10.10;9.80;;;4.20;99.90;;;;;;5063344;28;20238;-81
2022/04/19 04:45:01;;;;;;;10.47;10.17;;;4.30;99.90;;;;;;5077957;28;20222;-83
2022/04/19 04:50:20;;;;;;;10.13;9.83;;;4.30;99.90;;;;;;5074674;28;20226;-82
2022/04/19 04:52:49;;;;;;;10.40;10.10;;;4.30;99.90;;;;;;5089208;22;20258;-80
2022/04/19 04:55:17;;;;;;;10.40;10.10;;;4.40;99.90;;;;;;5062238;28;20283;-81
2022/04/19 04:57:45;;;;;;;10.30;10.00;;;4.40;99.90;;;;;;5059679;28;20262;-81
2022/04/19 05:00:14;;;;;;;9.90;9.60;;;4.30;99.90;;;;;;5060113;28;20284;-81
2022/04/19 05:02:44;;;;;;;10.23;9.93;;;4.30;99.90;;;;;;5071853;28;20218;-81
2022/04/19 05:05:11;;;;;;;10.47;10.17;;;4.40;99.90;;;;;;5075868;28;20730;-81
2022/04/19 05:07:39;;;;;;;10.30;10.00;;;4.40;99.90;;;;;;5057489;28;20266;-81
2022/04/19 05:10:09;;;;;;;10.20;9.90;;;4.40;99.90;;;;;;5057976;28;20234;-81
2022/04/19 05:12:37;;;;;;;10.10;9.80;;;4.40;99.90;;;;;;5056982;28;20238;-81
2022/04/19 05:15:05;;;;;;;10.10;9.80;;;4.50;99.90;;;;;;5058579;28;20241;-81
2022/04/19 05:17:33;;;;;;;10.40;10.10;;;4.50;99.90;;;;;;5058305;28;20227;-81
2022/04/19 05:20:02;;;;;;;10.30;10.00;;;4.50;99.90;;;;;;5058150;28;20231;-81
2022/04/19 05:22:31;;;;;;;10.60;10.30;;;4.60;99.90;;;;;;5057426;28;20238;-81
2022/04/19 05:24:59;;;;;;;10.20;9.90;;;4.70;99.90;;;;;;5058913;28;20313;-80
2022/04/19 05:27:27;;;;;;;10.33;10.03;;;4.80;99.90;;;;;;5059450;28;20293;-81
2022/04/19 05:29:55;;;;;;;10.30;10.00;;;4.80;99.90;;;;;;5070455;28;20328;-80
2022/04/19 05:32:24;;;;;;;10.27;9.97;;;4.90;99.90;;;;;;5059301;28;20234;-80
2022/04/19 05:34:52;;;;;;;10.60;10.30;;;5.00;99.90;;;;;;5059499;28;20230;-81
2022/04/19 05:37:21;;;;;;;10.70;10.40;;;5.00;99.90;;;;;;5059652;28;20231;-81
2022/04/19 05:39:49;;;;;;;10.50;10.20;;;5.10;99.90;;;;;;5059246;28;20277;-80
2022/04/19 05:42:16;;;;;;;10.80;10.50;;;5.20;99.90;;;;;;5060346;28;20239;-81
2022/04/19 05:44:44;;;;;;;11.00;10.70;;;5.20;99.90;;;;;;5058956;28;20223;-81
2022/04/19 05:47:12;;;;;;;10.97;10.67;;;5.30;99.90;;;;;;5059365;28;20241;-81
2022/04/19 05:49:39;;;;;;;10.87;10.57;;;5.40;99.90;;;;;;5059185;28;20277;-81
2022/04/19 05:52:08;;;;;;;10.53;10.23;;;5.40;99.90;;;;;;5057620;28;20280;-81
2022/04/19 05:54:38;;;;;;;10.37;10.07;;;5.50;99.90;;;;;;5058627;28;20233;-83
2022/04/19 05:57:06;;;;;;;10.43;10.13;;;5.50;99.90;;;;;;5058663;28;20226;-83
2022/04/19 05:59:35;;;;;;;10.30;10.00;;;5.60;99.90;;;;;;5057944;28;20277;-82
2022/04/19 06:04:53;;;;;;;10.40;10.10;;;5.80;99.90;;;;;;5058010;28;20249;-81
2022/04/19 06:07:21;;;;;;;10.60;10.30;;;5.90;99.90;;;;;;5059693;28;20254;-82
2022/04/19 06:09:50;;;;;;;10.77;10.47;;;6.00;99.90;;;;;;5059726;28;20223;-82
2022/04/19 06:12:18;;;;;;;10.70;10.40;;;6.20;99.90;;;;;;5059277;28;20230;-82
2022/04/19 06:14:46;;;;;;;10.73;10.43;;;6.30;99.90;;;;;;5059754;28;20231;-82
2022/04/19 06:17:16;;;;;;;10.90;10.60;;;6.50;99.90;;;;;;5063570;28;20241;-82
2022/04/19 06:19:44;;;;;;;10.97;10.67;;;6.60;99.90;;;;;;5060785;28;20227;-82
2022/04/19 06:22:13;;;;;;;11.10;10.80;;;6.70;99.90;;;;;;5060336;28;20237;-82
2022/04/19 06:24:41;;;;;;;11.00;10.70;;;6.80;99.90;;;;;;5063130;28;20262;-81
2022/04/19 06:27:10;;;;;;;10.83;10.53;;;6.80;99.90;;;;;;5062846;28;20231;-82
2022/04/19 06:29:39;;;;;;;11.00;10.70;;;7.00;99.90;;;;;;5062563;28;20231;-82
2022/04/19 06:32:08;;;;;;;10.70;10.40;;;7.10;99.90;;;;;;5061495;28;20239;-81
2022/04/19 06:34:36;;;;;;;10.70;10.40;;;7.30;99.90;;;;;;5062530;28;20223;-82
2022/04/19 06:37:05;;;;;;;10.60;10.30;;;7.40;99.90;;;;;;5062764;28;20227;-81
2022/04/19 06:39:32;;;;;;;10.40;10.10;;;7.50;99.90;;;;;;5062462;28;20246;-82
2022/04/19 06:42:00;;;;;;;10.60;10.30;;;7.60;99.90;;;;;;5061336;28;20227;-80
2022/04/19 06:44:29;;;;;;;10.43;10.13;;;7.80;99.90;;;;;;5061079;28;20234;-82
2022/04/19 06:46:57;;;;;;;10.47;10.17;;;8.00;99.90;;;;;;5061595;28;20309;-81
2022/04/19 06:49:25;;;;;;;10.13;9.83;;;8.20;99.90;;;;;;5062677;28;20235;-81
2022/04/19 06:51:53;;;;;;;10.50;10.20;;;8.30;99.90;;;;;;5060820;28;20304;-81
2022/04/19 06:54:20;;;;;;;10.87;10.57;;;8.50;99.90;;;;;;5061276;28;20613;-82
2022/04/19 06:56:48;;;;;;;10.70;10.40;;;8.60;99.90;;;;;;5062262;28;20269;-81
2022/04/19 06:59:16;;;;;;;10.67;10.37;;;8.60;99.90;;;;;;5061813;28;20242;-81
2022/04/19 07:01:45;;;;;;;10.40;10.10;;;8.70;99.90;;;;;;5062405;28;20243;-81
2022/04/19 07:04:13;;;;;;;10.63;10.33;;;8.80;99.90;;;;;;5063666;28;20233;-81
2022/04/19 07:06:41;;;;;;;10.63;10.33;;;8.90;99.90;;;;;;5062373;28;20242;-81
2022/04/19 07:09:09;;;;;;;10.70;10.40;;;9.00;99.90;;;;;;5062631;28;20282;-81
2022/04/19 07:11:37;;;;;;;10.70;10.40;;;9.20;99.90;;;;;;5061614;28;20306;-81
2022/04/19 07:14:05;;;;;;;11.40;11.00;;;9.30;99.90;;;;;;5061689;28;20233;-81
2022/04/19 07:16:33;;;;;;;11.07;10.77;;;9.30;99.90;;;;;;5061845;28;20231;-81
2022/04/19 07:19:02;;;;;;;10.90;10.60;;;9.30;99.90;;;;;;5061502;28;20297;-81
2022/04/19 07:27:00;;;;;;;10.60;10.30;;;9.50;99.90;;;;;;5065706;28;20227;-81
2022/04/19 07:29:28;;;;;;;10.70;10.40;;;9.60;99.90;;;;;;5068095;28;20235;-82
2022/04/19 07:31:56;;;;;;;10.57;10.27;;;9.70;99.90;;;;;;5061667;28;20340;-82
2022/04/19 07:34:25;;;;;;;10.47;10.17;;;9.90;99.90;;;;;;5060366;28;20231;-81
2022/04/19 07:36:56;;;;;;;10.73;10.43;;;10.00;99.90;;;;;;5060906;28;20249;-81
2022/04/19 07:39:23;;;;;;;10.80;10.50;;;10.20;99.90;;;;;;5062967;28;20238;-81
2022/04/19 07:41:51;;;;;;;10.30;10.00;;;10.10;99.90;;;;;;5060239;28;20702;-81
2022/04/19 07:44:19;;;;;;;10.50;10.20;;;10.30;99.90;;;;;;5060557;28;20231;-82
2022/04/19 07:46:46;;;;;;;11.00;10.70;;;10.40;99.90;;;;;;5059959;28;20303;-81
2022/04/19 07:49:14;;;;;;;11.13;10.83;;;10.50;99.90;;;;;;5059735;28;20231;-82
2022/04/19 07:51:44;;;;;;;10.90;10.60;;;10.50;99.90;;;;;;5059674;28;20297;-81
2022/04/19 07:54:12;;;;;;;11.07;10.77;;;10.50;99.90;;;;;;5059700;28;20283;-81
2022/04/19 07:56:39;;;;;;;10.60;10.30;;;10.60;99.90;;;;;;5062914;28;20226;-81
2022/04/19 07:59:07;;;;;;;10.60;10.30;;;10.70;99.90;;;;;;5065459;28;20242;-81
2022/04/19 08:01:35;;;;;;;10.57;10.27;;;10.90;99.90;;;;;;5063239;28;20235;-81
2022/04/19 08:04:03;;;;;;;10.60;10.30;;;11.00;99.90;;;;;;5061602;28;20219;-81
2022/04/19 08:06:30;;;;;;;10.47;10.17;;;11.10;99.90;;;;;;5060816;28;20230;-81
2022/04/19 08:09:00;;;;;;;10.33;10.03;;;11.20;99.90;;;;;;5060326;28;20238;-82
2022/04/19 08:11:28;;;;;;;10.53;10.23;;;11.30;99.90;;;;;;5059853;28;20230;-81
2022/04/19 08:13:55;;;;;;;10.20;9.90;;;11.40;99.90;;;;;;5059769;28;20223;-82
2022/04/19 08:16:23;;;;;;;10.57;10.27;;;11.60;99.90;;;;;;5060242;28;20231;-81
2022/04/19 08:18:51;;;;;;;10.07;9.77;;;11.70;99.90;;;;;;5060512;28;20265;-82
2022/04/19 08:21:18;;;;;;;10.40;10.10;;;11.80;99.90;;;;;;5060115;28;20238;-82
2022/04/19 08:23:46;;;;;;;10.40;10.10;;;12.00;99.90;;;;;;5060182;28;20231;-82
2022/04/19 08:26:15;;;;;;;10.90;10.60;;;12.20;99.90;;;;;;5059335;28;20234;-82
2022/04/19 08:28:44;;;;;;;10.50;10.20;;;12.40;99.90;;;;;;5059797;28;20265;-82
2022/04/19 08:31:12;;;;;;;10.90;10.60;;;12.60;99.90;;;;;;5059812;28;20223;-82
2022/04/19 08:33:39;;;;;;;10.60;10.30;;;12.70;99.90;;;;;;5077741;28;20207;-82
2022/04/19 08:36:07;;;;;;;10.63;10.33;;;12.70;99.90;;;;;;5077315;28;20234;-82
2022/04/19 08:38:35;;;;;;;10.30;10.00;;;12.60;99.90;;;;;;5077558;28;20246;-82
2022/04/19 08:41:03;;;;;;;10.70;10.40;;;12.80;99.90;;;;;;5076113;28;20235;-82
2022/04/19 08:43:32;;;;;;;10.93;10.63;;;12.90;99.90;;;;;;5076777;28;20211;-82
2022/04/19 08:46:02;;;;;;;11.10;10.80;;;13.10;99.90;;;;;;5076206;28;20250;-81
2022/04/19 08:48:30;;;;;;;11.00;10.70;;;13.40;99.90;;;;;;5075219;28;20242;-82
2022/04/19 08:50:57;;;;;;;10.60;10.30;;;13.60;99.90;;;;;;5077952;28;20245;-82
2022/04/19 08:58:53;;;;;;;10.53;10.23;;;14.30;99.90;;;;;;5056200;28;20290;-81
2022/04/19 09:01:21;;;;;;;10.50;10.20;;;14.50;99.90;;;;;;5076546;28;20253;-82
2022/04/19 09:03:48;;;;;;;10.37;10.07;;;14.50;99.90;;;;;;5074846;28;20222;-82
2022/04/19 09:06:16;;;;;;;10.60;10.30;;;14.40;99.90;;;;;;5073974;28;20237;-82
2022/04/19 09:09:11;;;;;;;10.70;10.40;;;14.30;99.90;;;;;;5075045;28;20231;-82
2022/04/19 09:11:39;;;;;;;11.00;10.70;;;14.60;99.90;;;;;;5072065;28;20241;-82
2022/04/19 09:14:08;;;;;;;11.13;10.82;;;14.80;99.90;;;;;;5071600;28;20219;-82
2022/04/19 09:16:36;;;;;;;10.90;10.60;;;14.40;99.90;;;;;;5067284;28;20231;-82
2022/04/19 09:19:04;;;;;;;10.80;10.50;;;14.30;99.90;;;;;;5061049;28;20260;-81
2022/04/19 09:21:38;;;;;;;10.50;10.20;;;14.50;99.90;;;;;;5061176;28;20230;-82
2022/04/19 09:24:19;;;;;;;10.63;10.32;;;14.90;99.90;;;;;;5061916;28;20289;-82
2022/04/19 09:26:48;;;;;;;10.38;10.07;;;15.30;99.90;;;;;;5066087;28;20299;-82
2022/04/19 09:29:22;;;;;;;10.65;10.35;;;15.20;99.90;;;;;;5062847;28;20234;-82
2022/04/19 09:31:52;;;;;;;10.30;10.00;;;15.00;99.90;;;;;;5062063;28;20273;-82
2022/04/19 09:34:31;;;;;;;10.25;9.95;;;15.20;99.90;;;;;;5061255;28;20219;-83
2022/04/19 09:37:10;;;;;;;10.20;9.90;;;15.20;99.90;;;;;;5060378;28;20290;-82
2022/04/19 09:39:38;;;;;;;10.60;10.30;;;15.00;99.90;;;;;;5061225;28;20237;-82
2022/04/19 09:42:08;;;;;;;9.98;9.68;;;14.60;99.90;;;;;;5061932;28;20701;-82
2022/04/19 09:44:42;;;;;;;10.10;9.80;;;14.80;99.90;;;;;;5060048;28;20230;-82
2022/04/19 09:47:12;;;;;;;10.15;9.85;;;14.90;99.90;;;;;;5059804;28;21041;-82
2022/04/19 09:49:44;;;;;;;10.27;9.98;;;14.80;99.90;;;;;;5059599;28;20293;-82
2022/04/19 09:52:16;;;;;;;10.57;10.27;;;15.10;99.90;;;;;;5059085;28;20238;-82
2022/04/19 09:54:45;;;;;;;10.50;10.20;;;14.90;99.90;;;;;;5059408;28;20235;-82
2022/04/19 09:57:12;;;;;;;10.60;10.30;;;14.50;99.90;;;;;;5059257;28;20317;-82
2022/04/19 09:59:45;;;;;;;10.40;10.10;;;14.50;99.90;;;;;;5059975;28;20233;-82
2022/04/19 10:10:32;;;;;;;10.93;10.63;;;15.20;99.90;;;;;;5058785;28;20614;-82
2022/04/19 10:13:03;;;;;;;11.07;10.77;;;15.50;99.90;;;;;;5057863;28;20740;-82
2022/04/19 10:15:33;;;;;;;11.05;10.75;;;15.70;99.90;;;;;;5058604;28;20223;-82
2022/04/19 10:18:01;;;;;;;10.95;10.65;;;15.70;99.90;;;;;;5058870;28;20258;-82
2022/04/19 10:20:32;;;;;;;10.90;10.60;;;15.80;99.90;;;;;;5058520;28;20227;-82
2022/04/19 10:23:06;;;;;;;10.90;10.60;;;15.80;99.90;;;;;;5058586;28;20308;-82
2022/04/19 10:25:46;;;;;;;10.90;10.60;;;16.00;99.90;;;;;;5059994;28;20277;-82
2022/04/19 10:28:16;;;;;;;10.95;10.65;;;16.30;99.90;;;;;;5059511;28;20239;-82
2022/04/19 10:30:51;;;;;;;11.00;10.70;;;16.50;99.90;;;;;;5059312;28;20261;-82
2022/04/19 10:33:49;;;;;;;10.60;10.30;;;16.50;99.90;;;;;;5058207;28;20230;-83
2022/04/19 10:36:20;;;;;;;10.57;10.27;;;16.70;99.90;;;;;;5059424;28;20237;-83
2022/04/19 10:39:23;;;;;;;10.35;10.05;;;16.70;99.90;;;;;;5059616;28;20287;-83
2022/04/19 10:41:59;;;;;;;10.52;10.23;;;16.60;99.90;;;;;;5058742;28;20336;-82
2022/04/19 10:44:36;;;;;;;10.70;10.40;;;16.80;99.90;;;;;;5059188;28;20307;-82
2022/04/19 10:47:15;;;;;;;10.60;10.30;;;16.70;99.90;;;;;;5058468;28;20223;-82
2022/04/19 10:49:52;;;;;;;10.93;10.63;;;17.00;99.90;;;;;;5058061;28;20242;-82
2022/04/19 10:52:52;;;;;;;10.80;10.50;;;17.10;99.90;;;;;;5098940;22;20238;-82
2022/04/19 10:55:29;;;;;;;10.70;10.40;;;17.20;99.90;;;;;;5066166;28;20219;-82
2022/04/19 11:01:05;;;;;;;10.88;10.57;;;17.50;99.90;;;;;;5064354;28;20230;-82
2022/04/19 11:03:59;;;;;;;11.05;10.75;;;17.50;99.90;;;;;;5069678;28;20231;-83
2022/04/19 11:06:37;;;;;;;11.07;10.77;;;17.30;99.90;;;;;;5066958;28;20235;-83
2022/04/19 11:09:27;;;;;;;10.90;10.60;;;17.50;99.90;;;;;;5064812;28;20226;-82
2022/04/19 11:12:04;;;;;;;10.48;10.18;;;17.40;99.90;;;;;;5068824;28;20226;-82
2022/04/19 11:14:41;;;;;;;10.63;10.32;;;17.50;99.90;;;;;;5068859;28;20226;-83
2022/04/19 11:17:29;;;;;;;10.82;10.52;;;17.50;99.90;;;;;;5067501;28;20230;-82
2022/04/19 11:23:01;;;;;;;11.35;10.95;;;18.30;99.90;;;;;;5071487;28;20777;-81
2022/04/19 11:25:43;;;;;;;11.48;11.07;;;18.60;99.90;;;;;;5070161;28;20265;-83
2022/04/19 11:28:22;;;;;;;11.50;11.10;;;18.90;99.90;;;;;;5069525;28;20223;-82
2022/04/19 11:31:17;;;;;;;11.30;10.90;;;19.30;99.90;;;;;;5069052;28;20226;-82
2022/04/19 11:33:49;;;;;;;11.52;11.13;;;19.50;99.90;;;;;;5071141;28;20239;-82
2022/04/19 11:36:33;;;;;;;11.30;10.90;;;19.50;99.90;;;;;;5072241;28;20298;-83
2022/04/19 11:39:04;;;;;;;11.23;10.93;;;19.50;99.90;;;;;;5071268;28;20237;-83
2022/04/19 11:47:07;;;;;;;11.25;10.95;;;18.70;99.90;;;;;;5071663;28;20227;-82
2022/04/19 11:49:38;;;;;;;11.13;10.82;;;19.00;99.90;;;;;;5068719;28;20237;-82
2022/04/19 11:52:23;;;;;;;11.02;10.73;;;19.20;99.90;;;;;;5071015;28;20222;-83
2022/04/19 11:55:00;;;;;;;10.98;10.68;;;19.20;99.90;;;;;;5068776;28;20239;-82
2022/04/19 11:57:29;;;;;;;11.80;11.40;;;18.60;99.90;;;;;;5069018;28;20238;-81
2022/04/19 11:59:59;;;;;;;11.60;11.20;;;18.50;99.90;;;;;;5068643;28;20266;-83
2022/04/19 12:02:28;;;;;;;11.57;11.18;;;18.90;99.90;;;;;;5068527;28;20227;-83
2022/04/19 12:05:02;;;;;;;11.63;11.23;;;19.40;99.90;;;;;;5068083;28;20235;-83
2022/04/19 12:07:35;;;;;;;11.70;11.30;;;19.50;99.90;;;;;;5067878;28;20231;-83
2022/04/19 12:10:08;;;;;;;11.60;11.20;;;19.50;99.90;;;;;;5067751;28;20222;-83
2022/04/19 12:12:37;;;;;;;11.50;11.10;;;19.60;99.90;;;;;;5066613;28;20266;-83
2022/04/19 12:15:15;;;;;;;11.60;11.20;;;19.60;99.90;;;;;;5067759;28;20231;-83
2022/04/19 12:17:51;;;;;;;11.63;11.23;;;19.90;99.90;;;;;;5071267;28;20227;-83
2022/04/19 12:20:49;;;;;;;11.60;11.20;;;19.80;99.90;;;;;;5072338;28;20235;-83
2022/04/19 12:24:13;;;;;;;11.45;11.05;;;20.20;99.90;;;;;;5077853;28;20211;-83
2022/04/19 12:26:41;;;;;;;11.63;11.23;;;20.40;99.90;;;;;;5070259;28;20266;-82
2022/04/19 12:36:01;;;;;;;10.85;10.55;;;21.00;99.90;;;;;;5068260;28;20242;-83
2022/04/19 12:41:46;;;;;;;10.50;10.20;;;20.80;99.90;;;;;;5073074;28;20226;-84
2022/04/19 12:47:44;;;;;;;11.20;10.90;;;20.90;99.90;;;;;;5073089;28;20256;-82
2022/04/19 12:50:14;;;;;;;11.20;10.90;;;21.30;99.90;;;;;;5076375;28;20230;-83
2022/04/19 12:52:43;;;;;;;11.00;10.70;;;21.70;99.90;;;;;;5079097;28;20223;-82
2022/04/19 12:55:39;;;;;;;11.20;10.90;;;21.50;99.90;;;;;;5076485;28;20226;-83
2022/04/19 12:59:02;;;;;;;;;;;;;;;;;;;;;
2022/04/19 13:01:30;;;;;;;11.20;10.90;;;21.20;99.90;;;;;;5068195;28;20229;-83
2022/04/19 13:04:00;;;;;;;11.25;10.95;;;20.30;99.90;;;;;;5064887;28;20235;-83
2022/04/19 13:17:49;;;;;;;10.65;10.35;;;21.00;99.90;;;;;;5066544;28;20729;-83
2022/04/19 13:20:18;;;;;;;10.65;10.35;;;21.10;99.90;;;;;;5065390;28;20245;-83
2022/04/19 13:25:36;;;;;;;11.18;10.88;;;21.50;99.90;;;;;;5064340;28;20229;-84
2022/04/19 13:28:15;;;;;;;11.20;10.90;;;21.30;99.90;;;;;;5065202;28;20237;-84
2022/04/19 13:30:43;;;;;;;11.20;10.90;;;21.20;99.90;;;;;;5064229;28;20218;-83
2022/04/19 13:33:11;;;;;;;11.05;10.75;;;21.40;99.90;;;;;;5063637;28;20239;-83
2022/04/19 13:35:40;;;;;;;11.30;11.00;;;21.90;99.10;;;;;;5073197;28;20214;-83
2022/04/19 13:38:32;;;;;;;11.23;10.93;;;21.70;99.10;;;;;;5070047;28;20231;-83
2022/04/19 13:41:00;;;;;;;11.20;10.90;;;21.00;99.70;;;;;;5065519;28;20219;-82
2022/04/19 13:43:29;;;;;;;11.25;10.95;;;21.40;99.40;;;;;;5066541;28;20231;-82
2022/04/19 13:45:57;;;;;;;11.15;10.85;;;21.30;99.10;;;;;;5064265;28;20290;-84
2022/04/19 13:48:30;;;;;;;11.13;10.82;;;21.20;99.00;;;;;;5064186;28;20238;-83
2022/04/19 13:51:00;;;;;;;11.18;10.88;;;21.50;99.20;;;;;;5064178;28;20310;-83
2022/04/19 13:53:36;;;;;;;11.52;11.13;;;21.40;98.50;;;;;;5063115;28;20234;-83
2022/04/19 13:56:08;;;;;;;11.20;10.90;;;20.50;98.70;;;;;;5063407;28;20281;-83
2022/04/19 13:58:41;;;;;;;11.15;10.85;;;20.70;99.10;;;;;;5063086;28;20237;-83
2022/04/19 14:01:10;;;;;;;11.10;10.80;;;20.50;98.50;;;;;;5070209;28;20206;-83
2022/04/19 14:03:39;;;;;;;10.90;10.60;;;20.60;98.80;;;;;;5077424;28;20230;-84
2022/04/19 14:06:09;;;;;;;10.80;10.50;;;20.80;98.60;;;;;;5066850;28;20242;-82
2022/04/19 14:08:39;;;;;;;10.80;10.50;;;21.00;98.20;;;;;;5065454;28;20223;-84
2022/04/19 14:11:12;;;;;;;10.93;10.63;;;21.10;96.70;;;;;;5064278;28;20215;-84